createdAt,value
2018-05-24T00:02:23.767Z,57.20
2018-05-24T00:04:52.152Z,57.50
2018-05-24T00:07:20.615Z,58.20
2018-05-24T00:09:49.015Z,57.80
2018-05-24T00:12:17.409Z,58.70
2018-05-24T00:14:45.892Z,59.30
2018-05-24T00:17:14.269Z,59.80
2018-05-24T00:19:43.436Z,61.20
2018-05-24T00:22:11.895Z,61.10
2018-05-24T00:24:40.285Z,62.40
2018-05-24T00:27:08.677Z,63.00
2018-05-24T00:29:37.152Z,63.20
2018-05-24T00:32:05.555Z,63.90
2018-05-24T00:34:34.740Z,64.10
2018-05-24T00:37:03.224Z,64.20
2018-05-24T00:39:31.612Z,64.50
2018-05-24T00:42:00.002Z,65.60
2018-05-24T00:44:28.451Z,64.50
2018-05-24T00:46:56.866Z,64.40
2018-05-24T00:49:25.246Z,64.50
2018-05-24T00:51:53.714Z,64.40
2018-05-24T00:54:22.120Z,64.20
2018-05-24T00:56:51.279Z,65.60
2018-05-24T00:59:19.852Z,65.60
2018-05-24T01:01:49.196Z,67.00
2018-05-24T01:04:18.344Z,67.30
2018-05-24T01:06:46.798Z,67.30
2018-05-24T01:09:15.185Z,67.40
2018-05-24T01:11:43.571Z,67.40
2018-05-24T01:14:12.064Z,67.50
2018-05-24T01:16:40.444Z,67.90
2018-05-24T01:19:08.820Z,67.70
2018-05-24T01:21:37.283Z,68.20
2018-05-24T01:24:05.666Z,68.00
2018-05-24T01:26:34.060Z,68.50
2018-05-24T01:29:02.541Z,69.10
2018-05-24T01:31:30.974Z,69.30
2018-05-24T01:34:00.140Z,70.80
2018-05-24T01:39:27.582Z,72.00
2018-05-24T01:41:56.035Z,73.80
2018-05-24T01:44:24.456Z,74.60
2018-05-24T01:46:52.825Z,75.00
2018-05-24T01:49:21.291Z,74.70
2018-05-24T01:51:49.682Z,74.20
2018-05-24T01:54:18.067Z,74.10
2018-05-24T01:56:46.553Z,74.70
2018-05-24T01:59:14.947Z,74.50
2018-05-24T02:01:43.344Z,75.60
2018-05-24T02:04:11.798Z,74.10
2018-05-24T02:06:40.182Z,74.80
2018-05-24T02:09:08.610Z,75.60
2018-05-24T02:11:37.825Z,79.00
2018-05-24T02:14:06.229Z,79.00
2018-05-24T02:16:34.604Z,79.20
2018-05-24T02:19:03.069Z,80.00
2018-05-24T02:21:31.467Z,79.80
2018-05-24T02:23:59.851Z,79.90
2018-05-24T02:26:28.306Z,78.50
2018-05-24T02:28:57.521Z,76.80
2018-05-24T02:31:26.668Z,76.50
2018-05-24T02:33:55.109Z,76.50
2018-05-24T02:36:23.493Z,77.00
2018-05-24T02:38:51.897Z,77.00
2018-05-24T02:41:20.380Z,76.50
2018-05-24T02:43:48.762Z,76.90
2018-05-24T02:46:17.160Z,77.50
2018-05-24T02:48:46.384Z,77.60
2018-05-24T02:51:14.771Z,77.60
2018-05-24T02:53:43.257Z,77.80
2018-05-24T02:56:11.723Z,76.90
2018-05-24T02:58:40.873Z,77.50
2018-05-24T03:01:10.076Z,77.80
2018-05-24T03:03:38.560Z,77.70
2018-05-24T03:06:06.960Z,77.70
2018-05-24T03:08:36.136Z,77.50
2018-05-24T03:11:04.577Z,77.60
2018-05-24T03:13:32.954Z,79.20
2018-05-24T03:16:01.358Z,79.50
2018-05-24T03:18:30.576Z,79.40
2018-05-24T03:20:59.768Z,79.40
2018-05-24T03:23:28.162Z,79.30
2018-05-24T03:25:56.612Z,80.80
2018-05-24T03:28:25.036Z,81.10
2018-05-24T03:30:54.198Z,81.70
2018-05-24T03:33:22.654Z,81.70
2018-05-24T03:35:51.048Z,81.60
2018-05-24T03:38:20.260Z,82.90
2018-05-24T03:40:48.662Z,83.90
2018-05-24T03:43:17.040Z,83.20
2018-05-24T03:45:45.456Z,82.40
2018-05-24T03:48:13.964Z,82.30
2018-05-24T03:50:42.352Z,84.40
2018-05-24T03:53:10.735Z,84.90
2018-05-24T03:55:39.194Z,86.40
2018-05-24T03:58:07.627Z,83.90
2018-05-24T04:00:48.004Z,84.20
2018-05-24T04:03:28.896Z,83.30
2018-05-24T04:05:57.408Z,83.30
2018-05-24T04:08:25.808Z,83.60
2018-05-24T04:10:54.193Z,84.00
2018-05-24T04:13:22.648Z,83.40
2018-05-24T04:15:51.160Z,84.50
2018-05-24T04:18:19.540Z,86.60
2018-05-24T04:20:47.995Z,88.10
2018-05-24T04:23:16.430Z,87.90
2018-05-24T04:25:44.820Z,89.20
2018-05-24T04:28:13.264Z,88.70
2018-05-24T04:30:41.636Z,88.80
2018-05-24T04:33:10.008Z,88.30
2018-05-24T04:35:38.452Z,90.00
2018-05-24T04:38:06.825Z,90.00
2018-05-24T04:40:35.216Z,91.00
2018-05-24T04:43:03.681Z,90.90
2018-05-24T04:45:32.142Z,90.70
2018-05-24T04:48:00.491Z,90.10
2018-05-24T04:50:28.944Z,90.10
2018-05-24T04:52:58.100Z,89.70
2018-05-24T04:55:27.244Z,90.00
2018-05-24T04:57:56.503Z,90.00
2018-05-24T05:00:24.894Z,89.40
2018-05-24T05:02:54.068Z,87.20
2018-05-24T05:05:23.292Z,85.20
2018-05-24T05:07:51.676Z,85.20
2018-05-24T05:10:20.082Z,85.60
2018-05-24T05:12:48.544Z,85.10
2018-05-24T05:15:16.940Z,85.40
2018-05-24T05:17:45.330Z,86.00
2018-05-24T05:20:13.776Z,85.90
2018-05-24T05:22:42.164Z,85.70
2018-05-24T05:25:11.329Z,85.70
2018-05-24T05:27:39.841Z,85.80
2018-05-24T05:30:08.250Z,86.00
2018-05-24T05:32:36.636Z,86.00
2018-05-24T05:35:05.114Z,86.40
2018-05-24T05:37:33.558Z,85.10
2018-05-24T05:40:02.680Z,85.40
2018-05-24T05:42:31.146Z,85.30
2018-05-24T05:44:59.536Z,85.80
2018-05-24T05:47:27.936Z,86.80
2018-05-24T05:49:56.381Z,86.70
2018-05-24T05:52:24.772Z,86.50
2018-05-24T05:54:53.158Z,87.50
2018-05-24T05:57:21.647Z,87.30
2018-05-24T05:59:50.031Z,86.50
2018-05-24T06:02:18.410Z,87.90
2018-05-24T06:04:46.873Z,88.30
2018-05-24T06:07:15.252Z,88.50
2018-05-24T06:09:43.734Z,89.60
2018-05-24T06:12:12.876Z,89.20
2018-05-24T06:14:42.058Z,89.40
2018-05-24T06:17:10.437Z,89.50
2018-05-24T06:19:39.682Z,89.00
2018-05-24T06:22:08.110Z,89.10
2018-05-24T06:24:36.522Z,90.10
2018-05-24T06:27:05.736Z,88.60
2018-05-24T06:29:34.123Z,88.70
2018-05-24T06:32:02.517Z,87.90
2018-05-24T06:34:31.725Z,88.10
2018-05-24T06:37:00.155Z,88.00
2018-05-24T06:39:29.317Z,88.20
2018-05-24T06:41:57.772Z,88.20
2018-05-24T06:44:26.160Z,85.70
2018-05-24T06:46:54.573Z,86.50
2018-05-24T06:49:23.026Z,85.80
2018-05-24T06:51:51.418Z,87.30
2018-05-24T06:54:20.613Z,84.50
2018-05-24T06:56:49.054Z,84.40
2018-05-24T06:59:17.441Z,85.10
2018-05-24T07:01:45.836Z,84.60
2018-05-24T07:04:14.292Z,85.00
2018-05-24T07:06:42.664Z,83.00
2018-05-24T07:09:11.064Z,80.80
2018-05-24T07:11:39.508Z,80.20
2018-05-24T07:14:08.664Z,80.60
2018-05-24T07:16:37.048Z,80.70
2018-05-24T07:19:05.500Z,72.50
2018-05-24T07:21:33.886Z,69.70
2018-05-24T07:24:02.276Z,71.90
2018-05-24T07:26:30.717Z,74.50
2018-05-24T07:28:59.865Z,72.70
2018-05-24T07:31:28.249Z,72.80
2018-05-24T07:33:56.709Z,73.80
2018-05-24T07:36:25.105Z,72.10
2018-05-24T07:38:53.488Z,71.90
2018-05-24T07:41:21.952Z,71.60
2018-05-24T07:43:50.349Z,72.00
2018-05-24T07:46:18.720Z,70.90
2018-05-24T07:48:47.184Z,69.60
2018-05-24T07:51:15.560Z,68.70
2018-05-24T07:53:43.961Z,69.40
2018-05-24T07:56:12.405Z,67.80
2018-05-24T07:58:40.782Z,67.50
2018-05-24T08:01:09.215Z,64.60
2018-05-24T08:03:37.663Z,56.90
2018-05-24T08:06:06.049Z,56.60
2018-05-24T08:08:34.523Z,59.20
2018-05-24T08:11:02.980Z,57.40
2018-05-24T08:13:33.139Z,54.90
2018-05-24T08:16:02.291Z,59.00
2018-05-24T08:18:31.493Z,60.70
2018-05-24T08:20:59.886Z,60.70
2018-05-24T08:23:28.259Z,59.30
2018-05-24T08:25:56.735Z,59.80
2018-05-24T08:28:25.126Z,57.60
2018-05-24T08:30:54.300Z,54.40
2018-05-24T08:33:23.523Z,56.40
2018-05-24T08:35:51.902Z,56.50
2018-05-24T08:38:20.303Z,55.00
2018-05-24T08:40:48.828Z,52.70
2018-05-24T08:43:17.171Z,53.70
2018-05-24T08:45:45.559Z,54.50
2018-05-24T08:48:13.999Z,51.10
2018-05-24T08:50:42.359Z,51.20
2018-05-24T08:53:11.497Z,46.20
2018-05-24T08:55:39.939Z,46.30
2018-05-24T08:58:08.339Z,48.20
2018-05-24T09:00:36.715Z,48.90
2018-05-24T09:03:05.206Z,44.90
2018-05-24T09:05:33.579Z,45.40
2018-05-24T09:08:01.967Z,44.00
2018-05-24T09:10:30.453Z,47.50
2018-05-24T09:12:58.837Z,47.50
2018-05-24T09:15:27.215Z,37.30
2018-05-24T09:17:55.657Z,38.40
2018-05-24T09:20:24.039Z,36.10
2018-05-24T09:22:52.435Z,36.70
2018-05-24T09:25:20.895Z,37.00
2018-05-24T09:27:49.287Z,36.60
2018-05-24T09:30:17.691Z,36.70
2018-05-24T09:32:46.139Z,36.40
2018-05-24T09:35:14.520Z,37.50
2018-05-24T09:37:42.899Z,37.20
2018-05-24T09:40:11.338Z,37.50
2018-05-24T09:42:39.735Z,37.00
2018-05-24T09:45:08.119Z,35.30
2018-05-24T09:47:37.351Z,34.40
2018-05-24T09:50:05.731Z,34.50
2018-05-24T09:52:34.107Z,35.50
2018-05-24T09:55:03.493Z,35.10
2018-05-24T09:57:32.724Z,35.30
2018-05-24T10:00:01.064Z,35.20
2018-05-24T10:02:29.555Z,34.80
2018-05-24T10:04:58.701Z,35.20
2018-05-24T10:07:27.096Z,35.10
2018-05-24T10:09:55.558Z,35.50
2018-05-24T10:12:23.942Z,35.70
2018-05-24T10:14:53.150Z,35.30
2018-05-24T10:17:21.594Z,35.30
2018-05-24T10:19:49.983Z,35.50
2018-05-24T10:22:18.374Z,34.80
2018-05-24T10:24:47.624Z,34.40
2018-05-24T10:27:16.776Z,35.30
2018-05-24T10:29:45.170Z,35.30
2018-05-24T10:32:13.642Z,33.90
2018-05-24T10:34:42.024Z,33.90
2018-05-24T10:37:10.424Z,33.30
2018-05-24T10:39:38.884Z,34.00
2018-05-24T10:42:07.252Z,34.20
2018-05-24T10:44:35.733Z,33.40
2018-05-24T10:47:04.206Z,32.80
2018-05-24T10:49:33.380Z,32.60
2018-05-24T10:52:01.772Z,32.70
2018-05-24T10:54:30.203Z,32.10
2018-05-24T10:56:59.373Z,32.50
2018-05-24T10:59:27.754Z,32.50
2018-05-24T11:01:56.196Z,32.50
2018-05-24T11:04:24.596Z,31.90
2018-05-24T11:06:52.977Z,32.20
2018-05-24T11:09:21.429Z,31.90
2018-05-24T11:11:49.825Z,31.40
2018-05-24T11:14:18.247Z,32.20
2018-05-24T11:16:47.280Z,31.60
2018-05-24T11:19:15.736Z,30.60
2018-05-24T11:21:44.112Z,30.20
2018-05-24T11:24:12.569Z,30.10
2018-05-24T11:26:40.948Z,30.60
2018-05-24T11:29:09.328Z,30.60
2018-05-24T11:31:37.765Z,29.70
2018-05-24T11:34:06.165Z,30.10
2018-05-24T11:36:34.541Z,29.90
2018-05-24T11:39:03.071Z,30.00
2018-05-24T11:41:31.565Z,30.10
2018-05-24T11:43:59.900Z,30.30
2018-05-24T11:46:28.346Z,29.90
2018-05-24T11:48:56.718Z,30.10
2018-05-24T11:51:25.112Z,29.70
2018-05-24T11:53:54.390Z,31.20
2018-05-24T11:56:22.792Z,30.30
2018-05-24T11:58:51.175Z,30.50
2018-05-24T12:01:19.612Z,30.00
2018-05-24T12:03:47.996Z,30.00
2018-05-24T12:06:17.152Z,30.20
2018-05-24T12:08:45.595Z,30.10
2018-05-24T12:11:14.740Z,30.10
2018-05-24T12:13:43.153Z,30.30
2018-05-24T12:16:12.353Z,30.30
2018-05-24T12:18:41.506Z,30.30
2018-05-24T12:21:09.880Z,30.40
2018-05-24T12:23:38.335Z,30.70
2018-05-24T12:26:06.728Z,30.70
2018-05-24T12:28:35.116Z,30.70
2018-05-24T12:31:03.574Z,31.00
2018-05-24T12:33:32.726Z,31.10
2018-05-24T12:36:01.090Z,31.10
2018-05-24T12:38:29.524Z,30.50
2018-05-24T12:40:58.674Z,30.90
2018-05-24T12:43:27.051Z,31.00
2018-05-24T12:45:55.482Z,30.90
2018-05-24T12:48:23.860Z,31.60
2018-05-24T12:50:53.015Z,31.10
2018-05-24T12:53:21.444Z,31.00
2018-05-24T12:55:50.671Z,31.30
2018-05-24T12:58:19.059Z,31.30
2018-05-24T13:00:47.496Z,30.80
2018-05-24T13:03:16.630Z,30.90
2018-05-24T13:05:45.010Z,30.80
2018-05-24T13:08:13.467Z,30.70
2018-05-24T13:10:41.844Z,30.40
2018-05-24T13:13:10.979Z,30.70
2018-05-24T13:15:39.412Z,30.70
2018-05-24T13:18:08.560Z,31.30
2018-05-24T13:20:36.940Z,31.30
2018-05-24T13:23:05.380Z,31.00
2018-05-24T13:25:33.745Z,30.60
2018-05-24T13:28:02.884Z,31.40
2018-05-24T13:30:31.313Z,31.30
2018-05-24T13:32:59.679Z,31.10
2018-05-24T13:35:28.063Z,30.80
2018-05-24T13:37:56.522Z,30.50
2018-05-24T13:40:24.914Z,30.60
2018-05-24T13:42:54.091Z,30.00
2018-05-24T13:45:22.563Z,30.00
2018-05-24T13:47:50.919Z,30.30
2018-05-24T13:50:19.393Z,30.50
2018-05-24T13:52:47.910Z,30.60
2018-05-24T13:55:16.213Z,31.00
2018-05-24T13:57:45.510Z,31.10
2018-05-24T14:00:13.982Z,30.60
2018-05-24T14:02:42.355Z,30.70
2018-05-24T14:05:10.723Z,30.60
2018-05-24T14:07:39.146Z,30.10
2018-05-24T14:10:07.535Z,30.30
2018-05-24T14:12:36.666Z,30.70
2018-05-24T14:15:05.872Z,30.50
2018-05-24T14:17:34.230Z,30.40
2018-05-24T14:20:02.612Z,30.00
2018-05-24T14:22:31.044Z,29.90
2018-05-24T14:24:59.413Z,29.60
2018-05-24T14:27:27.780Z,29.90
2018-05-24T14:29:56.206Z,29.90
2018-05-24T14:32:24.598Z,29.90
2018-05-24T14:34:53.756Z,30.00
2018-05-24T14:37:22.173Z,30.00
2018-05-24T14:39:51.302Z,30.00
2018-05-24T14:42:19.674Z,30.00
2018-05-24T14:44:48.114Z,30.20
2018-05-24T14:47:16.482Z,30.20
2018-05-24T14:49:44.839Z,29.70
2018-05-24T14:52:13.270Z,30.20
2018-05-24T14:54:42.430Z,31.20
2018-05-24T14:57:11.221Z,31.20
2018-05-24T14:59:40.467Z,30.90
2018-05-24T15:02:08.857Z,30.90
2018-05-24T15:04:37.323Z,30.70
2018-05-24T15:07:05.725Z,30.20
2018-05-24T15:09:34.093Z,30.60
2018-05-24T15:12:02.531Z,30.70
2018-05-24T15:14:30.908Z,31.00
2018-05-24T15:16:59.280Z,30.80
2018-05-24T15:19:27.716Z,30.80
2018-05-24T15:21:56.114Z,30.40
2018-05-24T15:24:24.512Z,30.70
2018-05-24T15:26:52.936Z,31.10
2018-05-24T15:29:21.316Z,30.40
2018-05-24T15:31:49.686Z,30.50
2018-05-24T15:34:18.904Z,30.50
2018-05-24T15:36:47.272Z,30.50
2018-05-24T15:39:15.650Z,30.80
2018-05-24T15:41:44.089Z,31.30
2018-05-24T15:44:12.476Z,31.30
2018-05-24T15:46:40.866Z,31.60
2018-05-24T15:49:09.296Z,31.50
2018-05-24T15:51:37.667Z,32.20
2018-05-24T15:54:06.062Z,32.80
2018-05-24T15:56:34.496Z,31.70
2018-05-24T15:59:03.708Z,32.10
2018-05-24T16:01:32.102Z,32.20
2018-05-24T16:04:00.582Z,32.10
2018-05-24T16:06:28.974Z,32.20
2018-05-24T16:08:57.368Z,32.10
2018-05-24T16:11:25.812Z,32.10
2018-05-24T16:13:54.200Z,32.00
2018-05-24T16:16:22.569Z,32.10
2018-05-24T16:18:51.012Z,31.90
2018-05-24T16:21:19.392Z,32.20
2018-05-24T16:23:47.750Z,32.60
2018-05-24T16:26:16.223Z,32.60
2018-05-24T16:28:44.608Z,32.80
2018-05-24T16:31:12.979Z,32.60
2018-05-24T16:33:41.414Z,32.50
2018-05-24T16:36:10.543Z,32.80
2018-05-24T16:38:38.979Z,32.80
2018-05-24T16:41:08.214Z,32.70
2018-05-24T16:43:36.577Z,32.30
2018-05-24T16:46:04.967Z,32.40
2018-05-24T16:48:33.392Z,32.60
2018-05-24T16:51:02.577Z,32.40
2018-05-24T16:53:30.946Z,32.20
2018-05-24T16:56:00.183Z,32.60
2018-05-24T16:58:29.340Z,33.30
2018-05-24T17:00:57.708Z,32.70
2018-05-24T17:03:26.130Z,32.70
2018-05-24T17:05:54.512Z,32.40
2018-05-24T17:08:22.891Z,32.60
2018-05-24T17:10:51.348Z,32.60
2018-05-24T17:13:19.717Z,32.70
2018-05-24T17:15:48.079Z,32.80
2018-05-24T17:18:16.536Z,33.10
2018-05-24T17:20:45.677Z,32.80
2018-05-24T17:23:14.055Z,32.80
2018-05-24T17:25:42.504Z,32.80
2018-05-24T17:28:10.875Z,33.60
2018-05-24T17:30:39.296Z,33.20
2018-05-24T17:33:07.731Z,33.30
2018-05-24T17:35:36.868Z,33.00
2018-05-24T17:38:05.266Z,32.90
2018-05-24T17:40:33.728Z,33.10
2018-05-24T17:43:02.150Z,32.90
2018-05-24T17:45:31.346Z,33.20
2018-05-24T17:48:01.026Z,33.30
2018-05-24T17:50:29.431Z,33.40
2018-05-24T17:52:57.823Z,33.20
2018-05-24T17:55:27.340Z,33.50
2018-05-24T17:57:56.530Z,33.30
2018-05-24T18:08:08.640Z,33.70
2018-05-24T18:10:37.100Z,33.80
2018-05-24T18:13:05.521Z,33.90
2018-05-24T18:15:33.904Z,33.70
2018-05-24T18:18:02.432Z,33.80
2018-05-24T18:41:35.838Z,34.10
2018-05-24T18:44:04.260Z,34.20
2018-05-24T18:46:32.697Z,34.40
2018-05-24T18:49:01.106Z,34.70
2018-05-24T18:51:29.469Z,34.80
2018-05-24T18:53:58.684Z,35.50
2018-05-24T18:56:27.080Z,34.80
2018-05-24T18:58:55.449Z,35.10
2018-05-24T19:01:23.877Z,35.10
2018-05-24T19:03:52.262Z,35.00
2018-05-24T19:06:20.639Z,36.60
2018-05-24T19:08:49.057Z,35.60
2018-05-24T19:11:18.188Z,35.80
2018-05-24T19:13:46.548Z,35.80
2018-05-24T19:16:14.974Z,36.80
2018-05-24T19:18:43.352Z,36.10
2018-05-24T19:21:11.775Z,36.40
2018-05-24T19:23:40.173Z,36.40
2018-05-24T19:26:08.528Z,36.60
2018-05-24T19:28:37.728Z,36.80
2018-05-24T19:31:06.953Z,37.20
2018-05-24T19:33:35.313Z,37.10
2018-05-24T19:36:03.716Z,37.40
2018-05-24T19:38:32.150Z,37.90
2018-05-24T19:41:01.303Z,38.50
2018-05-24T19:43:29.671Z,38.40
2018-05-24T19:45:58.129Z,38.50
2018-05-24T19:48:26.498Z,38.80
2018-05-24T19:50:55.742Z,39.00
2018-05-24T19:53:24.175Z,39.10
2018-05-24T19:55:53.389Z,39.70
2018-05-24T19:58:21.723Z,39.60
2018-05-24T20:00:50.243Z,40.10
2018-05-24T20:03:18.623Z,40.10
2018-05-24T20:05:46.999Z,40.20
2018-05-24T20:08:15.447Z,40.50
2018-05-24T20:10:43.817Z,40.80
2018-05-24T20:13:12.197Z,40.80
2018-05-24T20:15:40.615Z,41.20
2018-05-24T20:18:09.940Z,40.90
2018-05-24T20:20:38.315Z,40.90
2018-05-24T20:23:06.736Z,40.90
2018-05-24T20:25:35.104Z,40.70
2018-05-24T20:28:03.552Z,41.20
2018-05-24T20:30:31.930Z,41.20
2018-05-24T20:33:00.402Z,41.10
2018-05-24T20:35:28.804Z,40.80
2018-05-24T20:37:57.192Z,41.30
2018-05-24T20:40:25.664Z,41.40
2018-05-24T20:42:54.036Z,41.30
2018-05-24T20:45:22.420Z,41.40
2018-05-24T20:47:50.866Z,41.40
2018-05-24T20:50:20.011Z,42.10
2018-05-24T20:52:48.394Z,42.10
2018-05-24T20:55:18.460Z,41.80
2018-05-24T20:57:47.604Z,42.00
2018-05-24T21:00:16.758Z,42.20
2018-05-24T21:02:49.178Z,42.20
2018-05-24T21:05:17.617Z,42.40
2018-05-24T21:07:46.121Z,42.20
2018-05-24T21:10:18.929Z,43.00
2018-05-24T21:12:47.503Z,43.00
2018-05-24T21:15:17.104Z,43.40
2018-05-24T21:17:45.520Z,43.40
